Airport View

Enter AWOS ICAO identifier for current METAR.

ex. KFNL

KFYE 080355Z AUTO 00000KT 10SM CLR 25/22 A2997 RMK A01

8 Jul 2020 04:11

Frequency: 119.875

Phone: 901-465-6367

Other Area AWOS: KM08 - KOLV - KM04 - KNQA

TAF AMD KMEM 080301Z 0803/0906 02006KT P6SM FEW060 BKN250 FM080600 19006KT P6SM SCT250 FM081600 22006KT P6SM SCT030 FM082100 18005KT P6SM VCTS SCT030CB BKN050 FM090100 18005KT P6SM SCT050 BKN250